createdAt,value
2022-10-22T00:00:09.923Z,14.48
2022-10-22T00:02:36.951Z,13.90
2022-10-22T00:05:04.471Z,12.93
2022-10-22T00:07:31.273Z,14.15
2022-10-22T00:09:58.041Z,15.48
2022-10-22T00:12:25.040Z,13.77
2022-10-22T00:14:51.789Z,14.23
2022-10-22T00:17:18.798Z,14.55
2022-10-22T00:19:45.705Z,18.50
2022-10-22T00:22:12.893Z,17.48
2022-10-22T00:24:39.987Z,16.10
2022-10-22T00:27:09.283Z,13.65
2022-10-22T00:29:36.102Z,12.88
2022-10-22T00:32:04.035Z,13.45
2022-10-22T00:34:30.793Z,12.80
2022-10-22T00:36:57.578Z,14.30
2022-10-22T00:39:26.383Z,13.02
2022-10-22T00:41:54.901Z,14.05
2022-10-22T00:44:59.441Z,13.18
2022-10-22T00:47:30.100Z,11.70
2022-10-22T00:49:58.929Z,15.52
2022-10-22T00:52:25.991Z,15.90
2022-10-22T00:54:53.021Z,13.73
2022-10-22T00:57:20.792Z,13.48
2022-10-22T00:59:48.253Z,16.48
2022-10-22T01:02:16.049Z,13.85
2022-10-22T01:04:42.969Z,13.32
2022-10-22T01:07:17.237Z,14.43
2022-10-22T01:10:03.066Z,14.57
2022-10-22T01:12:46.770Z,15.48
2022-10-22T01:15:21.288Z,14.05
2022-10-22T01:18:14.514Z,16.48
2022-10-22T01:21:00.272Z,14.45
2022-10-22T01:23:48.630Z,13.45
2022-10-22T01:26:44.502Z,15.80
2022-10-22T01:29:15.806Z,13.85
2022-10-22T01:31:51.597Z,14.95
2022-10-22T01:34:19.665Z,14.82
2022-10-22T01:36:48.232Z,15.60
2022-10-22T01:39:16.638Z,14.38
2022-10-22T01:41:45.407Z,17.33
2022-10-22T01:50:21.350Z,17.33
2022-10-22T01:53:27.369Z,14.65
2022-10-22T01:56:12.940Z,14.35
2022-10-22T01:59:01.734Z,14.20
2022-10-22T02:01:53.820Z,16.10
2022-10-22T02:04:32.422Z,15.23
2022-10-22T02:07:04.720Z,18.48
2022-10-22T02:09:33.752Z,17.85
2022-10-22T02:12:03.058Z,13.65
2022-10-22T02:14:31.373Z,16.65
2022-10-22T02:17:00.141Z,14.90
2022-10-22T02:19:38.558Z,16.73
2022-10-22T02:22:05.517Z,15.25
2022-10-22T02:24:32.469Z,19.02
2022-10-22T02:27:25.925Z,20.10
2022-10-22T02:30:06.833Z,12.50
2022-10-22T02:33:04.992Z,16.33
2022-10-22T02:35:32.260Z,14.93
2022-10-22T02:37:59.912Z,14.82
2022-10-22T02:40:28.537Z,14.93
2022-10-22T02:42:55.253Z,13.75
2022-10-22T02:45:22.624Z,16.65
2022-10-22T02:47:49.742Z,16.58
2022-10-22T02:50:16.719Z,16.45
2022-10-22T02:52:43.903Z,12.90
2022-10-22T02:55:10.746Z,14.85
2022-10-22T02:57:37.715Z,17.42
2022-10-22T03:00:06.656Z,16.33
2022-10-22T03:02:33.390Z,15.13
2022-10-22T03:05:00.434Z,17.27
2022-10-22T03:07:27.220Z,14.70
2022-10-22T03:09:53.997Z,14.15
2022-10-22T03:12:20.736Z,13.02
2022-10-22T03:14:47.443Z,14.40
2022-10-22T03:17:14.254Z,13.25
2022-10-22T03:19:42.012Z,14.75
2022-10-22T03:22:16.717Z,17.02
2022-10-22T03:24:47.449Z,16.65
2022-10-22T03:27:16.431Z,17.83
2022-10-22T03:29:43.813Z,16.20
2022-10-22T03:32:10.585Z,19.67
2022-10-22T03:34:37.314Z,15.52
2022-10-22T03:37:04.207Z,14.88
2022-10-22T03:39:33.289Z,14.05
2022-10-22T03:42:00.789Z,17.48
2022-10-22T03:44:28.279Z,17.05
2022-10-22T03:46:58.613Z,18.55
2022-10-22T03:49:28.469Z,18.80
2022-10-22T03:51:55.179Z,14.68
2022-10-22T03:54:21.937Z,17.65
2022-10-22T03:56:48.653Z,13.85
2022-10-22T03:59:15.516Z,16.75
2022-10-22T04:01:42.237Z,15.70
2022-10-22T04:04:08.948Z,21.48
2022-10-22T04:06:35.690Z,18.88
2022-10-22T04:09:02.559Z,14.43
2022-10-22T04:11:29.455Z,15.73
2022-10-22T04:13:56.178Z,17.23
2022-10-22T04:16:25.126Z,16.83
2022-10-22T04:18:54.216Z,15.07
2022-10-22T04:21:21.193Z,15.30
2022-10-22T04:23:50.155Z,14.65
2022-10-22T04:26:17.853Z,17.00
2022-10-22T04:28:45.493Z,18.38
2022-10-22T04:31:14.790Z,17.65
2022-10-22T04:33:42.236Z,14.95
2022-10-22T04:36:09.367Z,15.00
2022-10-22T04:38:36.126Z,14.45
2022-10-22T04:41:16.022Z,14.02
2022-10-22T04:43:43.640Z,14.52
2022-10-22T04:46:11.605Z,14.70
2022-10-22T04:48:40.772Z,12.88
2022-10-22T04:51:10.807Z,17.52
2022-10-22T04:53:37.577Z,16.40
2022-10-22T04:56:16.320Z,16.52
2022-10-22T04:58:44.092Z,15.00
2022-10-22T05:01:17.240Z,16.13
2022-10-22T05:03:44.963Z,13.30
2022-10-22T05:08:44.707Z,18.98
2022-10-22T05:11:20.920Z,14.77
2022-10-22T05:13:48.029Z,15.57
2022-10-22T05:16:14.981Z,12.80
2022-10-22T05:18:43.882Z,12.73
2022-10-22T05:21:13.188Z,19.67
2022-10-22T05:23:40.315Z,14.82
2022-10-22T05:26:08.503Z,16.15
2022-10-22T05:28:36.161Z,16.27
2022-10-22T05:31:03.510Z,15.43
2022-10-22T05:33:32.293Z,17.50
2022-10-22T05:35:59.698Z,15.35
2022-10-22T05:38:26.790Z,14.77
2022-10-22T05:41:14.646Z,15.68
2022-10-22T05:43:41.425Z,15.55
2022-10-22T05:46:17.569Z,14.30
2022-10-22T05:49:00.885Z,17.90
2022-10-22T05:51:29.300Z,16.08
2022-10-22T05:53:58.904Z,20.10
2022-10-22T05:56:27.232Z,25.55
2022-10-22T05:58:54.249Z,18.73
2022-10-22T06:01:23.742Z,18.15
2022-10-22T06:03:53.840Z,16.02
2022-10-22T06:06:34.252Z,15.33
2022-10-22T06:09:07.711Z,14.85
2022-10-22T06:11:35.334Z,14.00
2022-10-22T06:14:03.472Z,14.88
2022-10-22T06:16:31.644Z,13.00
2022-10-22T06:19:02.226Z,14.80
2022-10-22T06:21:30.122Z,15.15
2022-10-22T06:23:58.699Z,12.35
2022-10-22T06:26:25.468Z,13.88
2022-10-22T06:28:52.244Z,14.45
2022-10-22T06:31:19.101Z,13.57
2022-10-22T06:33:45.834Z,14.90
2022-10-22T06:36:15.556Z,12.40
2022-10-22T06:38:42.697Z,17.20
2022-10-22T06:41:12.903Z,19.30
2022-10-22T06:43:41.117Z,16.52
2022-10-22T06:46:09.911Z,16.38
2022-10-22T06:48:38.043Z,14.00
2022-10-22T06:51:07.051Z,13.45
2022-10-22T06:53:34.143Z,15.23
2022-10-22T06:56:06.325Z,16.38
2022-10-22T06:58:33.405Z,14.88
2022-10-22T07:01:14.467Z,22.10
2022-10-22T07:03:42.204Z,19.25
2022-10-22T07:06:11.449Z,17.30
2022-10-22T07:08:38.771Z,15.65
2022-10-22T07:11:10.035Z,19.75
2022-10-22T07:13:37.638Z,14.35
2022-10-22T07:16:06.226Z,15.65
2022-10-22T07:18:33.822Z,19.10
2022-10-22T07:21:00.850Z,16.00
2022-10-22T07:23:28.642Z,14.27
2022-10-22T07:28:23.296Z,12.82
2022-10-22T07:30:51.180Z,14.23
2022-10-22T07:33:17.979Z,14.13
2022-10-22T07:35:44.703Z,12.60
2022-10-22T07:38:11.608Z,11.30
2022-10-22T07:40:38.462Z,14.60
2022-10-22T07:43:05.529Z,15.68
2022-10-22T07:45:32.323Z,16.35
2022-10-22T07:48:00.482Z,15.70
2022-10-22T07:50:27.332Z,11.63
2022-10-22T07:52:56.074Z,14.27
2022-10-22T07:55:24.360Z,10.57
2022-10-22T07:57:51.095Z,13.45
2022-10-22T08:00:20.448Z,10.32
2022-10-22T08:02:49.876Z,10.07
2022-10-22T08:05:16.682Z,9.23
2022-10-22T08:07:43.700Z,10.07
2022-10-22T08:10:11.585Z,9.30
2022-10-22T08:12:39.236Z,9.32
2022-10-22T08:15:06.727Z,9.60
2022-10-22T08:17:33.514Z,10.50
2022-10-22T08:20:00.242Z,9.45
2022-10-22T08:22:27.405Z,8.02
2022-10-22T08:24:54.089Z,9.13
2022-10-22T08:27:20.818Z,7.50
2022-10-22T08:29:47.697Z,11.10
2022-10-22T08:32:14.767Z,8.60
2022-10-22T08:34:41.591Z,9.15
2022-10-22T08:37:08.576Z,8.65
2022-10-22T08:39:35.769Z,9.75
2022-10-22T08:42:35.111Z,7.50
2022-10-22T08:45:31.015Z,6.43
2022-10-22T08:48:28.504Z,8.75
2022-10-22T08:50:57.583Z,5.78
2022-10-22T08:53:38.575Z,7.03
2022-10-22T08:58:54.807Z,6.07
2022-10-22T09:01:36.304Z,6.75
2022-10-22T09:04:14.690Z,5.30
2022-10-22T09:06:44.260Z,5.60
2022-10-22T09:09:18.850Z,8.38
2022-10-22T09:11:49.803Z,5.30
2022-10-22T09:14:22.427Z,4.88
2022-10-22T09:17:20.255Z,6.75
2022-10-22T09:20:13.508Z,8.02
2022-10-22T09:23:00.011Z,8.05
2022-10-22T09:25:31.505Z,5.35
2022-10-22T09:27:58.656Z,5.32
2022-10-22T09:30:37.845Z,5.97
2022-10-22T09:33:07.436Z,8.43
2022-10-22T09:35:43.646Z,6.10
2022-10-22T09:38:14.624Z,5.90
2022-10-22T09:43:17.449Z,6.47
2022-10-22T09:45:45.203Z,6.70
2022-10-22T09:48:14.944Z,6.05
2022-10-22T09:50:45.994Z,6.43
2022-10-22T09:53:12.766Z,6.32
2022-10-22T09:55:42.436Z,6.28
2022-10-22T09:58:12.865Z,7.38
2022-10-22T10:00:41.645Z,5.25
2022-10-22T10:03:17.885Z,7.00
2022-10-22T10:05:48.846Z,5.88
2022-10-22T10:11:03.553Z,6.97
2022-10-22T10:13:51.760Z,8.38
2022-10-22T10:16:32.808Z,7.68
2022-10-22T10:19:02.328Z,7.35
2022-10-22T10:21:52.835Z,7.53
2022-10-22T10:25:04.919Z,8.10
2022-10-22T10:27:55.435Z,7.68
2022-10-22T10:30:24.070Z,8.10
2022-10-22T10:33:17.057Z,8.02
2022-10-22T10:36:08.371Z,8.68
2022-10-22T10:38:53.684Z,8.38
2022-10-22T10:41:30.164Z,9.43
2022-10-22T10:44:38.594Z,10.02
2022-10-22T10:47:32.996Z,17.13
2022-10-22T10:50:29.011Z,8.35
2022-10-22T10:53:22.720Z,10.40
2022-10-22T10:56:05.899Z,12.43
2022-10-22T10:58:59.528Z,8.05
2022-10-22T11:01:37.388Z,8.68
2022-10-22T11:04:29.969Z,8.07
2022-10-22T11:07:11.060Z,8.90
2022-10-22T11:09:57.597Z,7.30
2022-10-22T11:12:31.383Z,8.50
2022-10-22T11:15:29.775Z,9.07
2022-10-22T11:18:03.013Z,6.97
2022-10-22T11:20:39.208Z,8.13
2022-10-22T11:23:19.691Z,8.27
2022-10-22T11:25:49.286Z,7.72
2022-10-22T11:28:32.029Z,6.13
2022-10-22T11:31:03.880Z,7.07
2022-10-22T11:33:47.806Z,7.60
2022-10-22T11:36:15.848Z,6.55
2022-10-22T11:38:42.812Z,8.80
2022-10-22T11:41:16.219Z,7.03
2022-10-22T11:43:55.277Z,9.65
2022-10-22T11:46:21.983Z,6.57
2022-10-22T11:49:16.474Z,8.35
2022-10-22T11:51:44.677Z,9.40
2022-10-22T11:54:31.316Z,8.75
2022-10-22T11:57:15.661Z,5.82
2022-10-22T11:59:59.395Z,5.88
2022-10-22T12:02:29.282Z,8.50
2022-10-22T12:05:21.864Z,8.85
2022-10-22T12:08:03.446Z,6.45
2022-10-22T12:10:55.576Z,7.70
2022-10-22T12:13:30.150Z,8.18
2022-10-22T12:16:01.677Z,6.53
2022-10-22T12:18:36.783Z,11.73
2022-10-22T12:21:03.859Z,7.68
2022-10-22T12:23:34.104Z,8.32
2022-10-22T12:26:00.872Z,7.40
2022-10-22T12:28:27.639Z,10.88
2022-10-22T12:30:54.351Z,12.13
2022-10-22T12:33:23.179Z,7.90
2022-10-22T12:35:53.936Z,8.23
2022-10-22T12:38:23.045Z,6.22
2022-10-22T12:40:51.348Z,7.90
2022-10-22T12:43:23.950Z,8.18
2022-10-22T12:45:51.332Z,7.55
2022-10-22T12:48:19.863Z,6.60
2022-10-22T12:50:53.002Z,6.80
2022-10-22T12:53:37.729Z,7.32
2022-10-22T12:56:13.329Z,19.25
2022-10-22T12:58:47.238Z,7.60
2022-10-22T13:01:17.154Z,6.35
2022-10-22T13:04:03.555Z,5.67
2022-10-22T13:06:33.629Z,8.60
2022-10-22T13:09:00.591Z,9.55
2022-10-22T13:12:05.755Z,11.05
2022-10-22T13:14:38.172Z,5.57
2022-10-22T13:17:06.865Z,7.50
2022-10-22T13:19:37.621Z,9.23
2022-10-22T13:22:04.818Z,6.60
2022-10-22T13:24:31.577Z,6.60
2022-10-22T13:26:58.404Z,6.53
2022-10-22T13:29:25.207Z,8.52
2022-10-22T13:31:53.880Z,6.75
2022-10-22T13:34:23.278Z,5.20
2022-10-22T13:36:50.665Z,8.77
2022-10-22T13:39:24.659Z,5.57
2022-10-22T13:41:51.921Z,7.47
2022-10-22T13:44:19.722Z,5.63
2022-10-22T13:46:48.373Z,7.55
2022-10-22T13:49:23.531Z,5.35
2022-10-22T13:51:51.324Z,8.43
2022-10-22T13:54:21.386Z,7.45
2022-10-22T13:56:48.123Z,7.03
2022-10-22T13:59:17.254Z,8.00
2022-10-22T14:01:46.659Z,6.00
2022-10-22T14:04:15.070Z,6.13
2022-10-22T14:06:45.008Z,5.30
2022-10-22T14:09:15.288Z,6.63
2022-10-22T14:11:43.070Z,8.27
2022-10-22T14:14:13.984Z,5.32
2022-10-22T14:16:40.958Z,8.10
2022-10-22T14:19:19.408Z,6.20
2022-10-22T14:21:46.984Z,5.72
2022-10-22T14:24:13.774Z,5.65
2022-10-22T14:26:40.657Z,5.95
2022-10-22T14:29:09.777Z,11.68
2022-10-22T14:34:07.084Z,9.43
2022-10-22T14:36:33.837Z,5.53
2022-10-22T14:39:00.551Z,5.82
2022-10-22T14:41:29.201Z,10.52
2022-10-22T14:43:55.973Z,8.52
2022-10-22T14:46:22.889Z,6.80
2022-10-22T14:48:49.655Z,6.68
2022-10-22T14:51:19.850Z,6.07
2022-10-22T14:53:47.573Z,7.50
2022-10-22T14:56:16.750Z,5.60
2022-10-22T14:58:43.681Z,5.95
2022-10-22T15:01:10.445Z,5.00
2022-10-22T15:03:37.481Z,5.05
2022-10-22T15:06:05.131Z,7.28
2022-10-22T15:08:32.232Z,4.90
2022-10-22T15:11:04.996Z,5.10
2022-10-22T15:13:32.707Z,6.20
2022-10-22T15:15:59.828Z,10.50
2022-10-22T15:18:27.437Z,4.97
2022-10-22T15:21:03.435Z,4.13
2022-10-22T15:23:30.678Z,4.07
2022-10-22T15:25:58.016Z,6.75
2022-10-22T15:28:25.136Z,7.55
2022-10-22T15:30:57.189Z,6.32
2022-10-22T15:33:24.124Z,2.90
2022-10-22T15:35:51.503Z,4.72
2022-10-22T15:38:18.488Z,3.55
2022-10-22T15:40:45.828Z,5.43
2022-10-22T15:43:12.668Z,4.35
2022-10-22T15:45:39.874Z,5.13
2022-10-22T15:48:06.719Z,4.32
2022-10-22T15:50:38.341Z,5.63
2022-10-22T15:53:05.405Z,4.95
2022-10-22T15:55:32.113Z,4.95
2022-10-22T15:58:01.826Z,4.72
2022-10-22T16:00:30.341Z,3.85
2022-10-22T16:02:57.068Z,5.97
2022-10-22T16:05:23.812Z,4.50
2022-10-22T16:07:51.431Z,4.07
2022-10-22T16:10:18.354Z,4.68
2022-10-22T16:12:45.129Z,9.98
2022-10-22T16:15:11.937Z,6.82
2022-10-22T16:17:38.764Z,8.50
2022-10-22T16:20:06.055Z,5.47
2022-10-22T16:22:33.994Z,6.93
2022-10-22T16:25:00.766Z,4.60
2022-10-22T16:27:27.637Z,6.85
2022-10-22T16:29:54.378Z,5.38
2022-10-22T16:32:21.116Z,49.80
2022-10-22T16:34:47.855Z,21.33
2022-10-22T16:37:14.687Z,10.52
2022-10-22T16:39:41.377Z,7.63
2022-10-22T16:42:08.119Z,7.00
2022-10-22T16:44:34.905Z,9.43
2022-10-22T16:47:01.626Z,6.10
2022-10-22T16:49:28.370Z,8.65
2022-10-22T16:51:55.097Z,9.23
2022-10-22T16:54:21.913Z,8.80
2022-10-22T16:56:48.634Z,9.45
2022-10-22T16:59:15.359Z,8.82
2022-10-22T17:01:42.185Z,9.75
2022-10-22T17:04:09.720Z,7.25
2022-10-22T17:06:36.711Z,9.30
2022-10-22T17:09:04.247Z,11.07
2022-10-22T17:11:35.710Z,8.07
2022-10-22T17:14:04.453Z,6.25
2022-10-22T17:16:31.444Z,7.20
2022-10-22T17:18:58.434Z,7.60
2022-10-22T17:21:25.486Z,6.40
2022-10-22T17:23:56.628Z,5.10
2022-10-22T17:26:24.415Z,7.28
2022-10-22T17:28:51.222Z,10.93
2022-10-22T17:31:22.258Z,10.73
2022-10-22T17:33:51.288Z,11.55
2022-10-22T17:36:19.281Z,8.10
2022-10-22T17:38:49.514Z,8.43
2022-10-22T17:41:20.614Z,8.43
2022-10-22T17:43:48.311Z,8.65
2022-10-22T17:46:20.782Z,7.80
2022-10-22T17:49:01.852Z,9.82
2022-10-22T17:53:56.438Z,5.03
2022-10-22T17:56:25.801Z,8.60
2022-10-22T17:58:53.121Z,10.18
2022-10-22T18:01:24.969Z,9.40
2022-10-22T18:03:52.910Z,9.25
2022-10-22T18:06:20.129Z,7.57
2022-10-22T18:08:47.177Z,6.93
2022-10-22T18:11:18.416Z,7.30
2022-10-22T18:13:49.205Z,6.90
2022-10-22T18:16:15.909Z,5.50
2022-10-22T18:18:47.140Z,5.35
2022-10-22T18:21:15.565Z,6.45
2022-10-22T18:23:42.616Z,9.95
2022-10-22T18:26:09.551Z,6.35
2022-10-22T18:28:36.472Z,6.05
2022-10-22T18:31:12.459Z,7.85
2022-10-22T18:33:40.344Z,9.00
2022-10-22T18:36:10.027Z,9.82
2022-10-22T18:38:40.060Z,7.88
2022-10-22T18:41:08.711Z,9.20
2022-10-22T18:43:35.939Z,11.45
2022-10-22T18:46:06.514Z,12.10
2022-10-22T18:48:36.858Z,6.45
2022-10-22T18:51:06.297Z,5.72
2022-10-22T18:53:33.369Z,7.80
2022-10-22T18:56:00.113Z,7.85
2022-10-22T18:58:26.896Z,5.90
2022-10-22T19:00:53.770Z,7.40
2022-10-22T19:03:20.522Z,7.68
2022-10-22T19:05:52.278Z,6.40
2022-10-22T19:08:20.003Z,6.18
2022-10-22T19:10:47.358Z,5.53
2022-10-22T19:13:15.611Z,11.07
2022-10-22T19:15:42.435Z,5.00
2022-10-22T19:18:09.375Z,5.57
2022-10-22T19:20:36.520Z,7.00
2022-10-22T19:23:04.015Z,5.10
2022-10-22T19:25:30.844Z,5.68
2022-10-22T19:27:57.563Z,6.50
2022-10-22T19:30:24.408Z,7.00
2022-10-22T19:32:51.325Z,6.20
2022-10-22T19:35:18.476Z,8.68
2022-10-22T19:37:48.312Z,5.78
2022-10-22T19:40:15.586Z,4.88
2022-10-22T19:42:44.520Z,6.28
2022-10-22T19:45:11.658Z,5.05
2022-10-22T19:47:38.380Z,5.65
2022-10-22T19:50:05.589Z,5.28
2022-10-22T19:52:33.206Z,7.07
2022-10-22T19:54:59.925Z,5.80
2022-10-22T19:57:26.665Z,5.80
2022-10-22T19:59:53.394Z,7.35
2022-10-22T20:02:20.103Z,10.73
2022-10-22T20:04:49.907Z,7.80
2022-10-22T20:07:17.315Z,9.93
2022-10-22T20:09:44.149Z,6.00
2022-10-22T20:12:11.117Z,8.65
2022-10-22T20:14:37.912Z,8.88
2022-10-22T20:17:04.744Z,5.80
2022-10-22T20:19:32.434Z,9.38
2022-10-22T20:24:30.808Z,5.72
2022-10-22T20:26:57.548Z,5.57
2022-10-22T20:29:24.409Z,7.00
2022-10-22T20:31:51.269Z,7.03
2022-10-22T20:34:18.030Z,7.28
2022-10-22T20:36:44.777Z,7.80
2022-10-22T20:39:14.278Z,4.75
2022-10-22T20:41:41.166Z,4.95
2022-10-22T20:44:14.199Z,5.93
2022-10-22T20:46:41.793Z,6.53
2022-10-22T20:49:16.545Z,4.63
2022-10-22T20:51:43.811Z,7.50
2022-10-22T20:54:11.176Z,4.20
2022-10-22T20:56:39.330Z,6.90
2022-10-22T20:59:08.445Z,5.55
2022-10-22T21:01:44.695Z,4.30
2022-10-22T21:04:11.559Z,5.22
2022-10-22T21:06:39.026Z,6.95
2022-10-22T21:09:11.053Z,7.85
2022-10-22T21:11:39.357Z,5.50
2022-10-22T21:14:07.590Z,7.32
2022-10-22T21:16:34.853Z,8.98
2022-10-22T21:19:01.710Z,8.63
2022-10-22T21:21:28.438Z,5.57
2022-10-22T21:23:55.193Z,4.60
2022-10-22T21:26:21.931Z,7.25
2022-10-22T21:28:48.995Z,6.63
2022-10-22T21:31:25.780Z,5.75
2022-10-22T21:33:53.508Z,7.22
2022-10-22T21:36:23.172Z,7.72
2022-10-22T21:38:53.605Z,6.83
2022-10-22T21:41:22.206Z,6.07
2022-10-22T21:43:50.003Z,6.40
2022-10-22T21:46:19.538Z,10.60
2022-10-22T21:48:46.621Z,7.05
2022-10-22T21:51:17.135Z,6.63
2022-10-22T21:53:44.263Z,6.38
2022-10-22T21:56:16.684Z,8.38
2022-10-22T21:58:43.752Z,10.32
2022-10-22T22:01:11.693Z,7.28
2022-10-22T22:03:38.743Z,6.22
2022-10-22T22:06:06.708Z,6.03
2022-10-22T22:08:34.320Z,8.77
2022-10-22T22:11:07.104Z,7.68
2022-10-22T22:13:34.649Z,6.78
2022-10-22T22:16:03.877Z,7.55
2022-10-22T22:18:30.940Z,4.85
2022-10-22T22:20:59.278Z,6.10
2022-10-22T22:23:26.697Z,5.28
2022-10-22T22:25:53.420Z,7.82
2022-10-22T22:28:20.145Z,7.28
2022-10-22T22:30:46.910Z,9.02
2022-10-22T22:33:13.622Z,7.55
2022-10-22T22:35:40.338Z,7.55
2022-10-22T22:38:07.060Z,7.55
2022-10-22T22:40:33.987Z,7.18
2022-10-22T22:43:00.763Z,4.78
2022-10-22T22:45:27.499Z,6.53
2022-10-22T22:47:54.201Z,6.65
2022-10-22T22:50:20.933Z,5.53
2022-10-22T22:52:48.032Z,6.00
2022-10-22T22:55:14.794Z,9.38
2022-10-22T22:57:41.491Z,10.20
2022-10-22T23:00:09.241Z,5.57
2022-10-22T23:02:35.972Z,8.48
2022-10-22T23:05:02.794Z,7.05
2022-10-22T23:07:29.526Z,5.15
2022-10-22T23:09:56.238Z,5.55
2022-10-22T23:12:22.963Z,8.65
2022-10-22T23:14:51.270Z,9.43
2022-10-22T23:17:19.469Z,5.72
2022-10-22T23:19:46.323Z,10.10
2022-10-22T23:22:12.999Z,5.30
2022-10-22T23:24:39.755Z,5.55
2022-10-22T23:27:06.424Z,8.98
2022-10-22T23:29:36.270Z,7.85
2022-10-22T23:32:05.807Z,6.38
2022-10-22T23:34:32.780Z,10.38
2022-10-22T23:36:59.823Z,10.57
2022-10-22T23:39:28.489Z,8.13
2022-10-22T23:41:55.289Z,8.65
2022-10-22T23:44:23.322Z,7.20
2022-10-22T23:46:50.653Z,6.35
2022-10-22T23:49:17.769Z,7.50
2022-10-22T23:51:44.643Z,9.18
2022-10-22T23:54:14.375Z,6.88
2022-10-22T23:56:41.503Z,6.70
2022-10-22T23:59:09.054Z,5.82
